sensor_id;sensor_type;location;lat;lon;timestamp;pressure;altitude;pressure_sealevel;temperature;humidity
13068;BME280;6600;51.362;6.686;2023-11-19T00:00:09;100528.41;;;11.85;100.00
13068;BME280;6600;51.362;6.686;2023-11-19T00:02:39;100563.19;;;11.92;100.00
13068;BME280;6600;51.362;6.686;2023-11-19T00:05:05;100566.63;;;11.99;100.00
13068;BME280;6600;51.362;6.686;2023-11-19T00:07:37;100577.09;;;12.00;100.00
13068;BME280;6600;51.362;6.686;2023-11-19T00:10:16;100567.19;;;12.01;100.00
13068;BME280;6600;51.362;6.686;2023-11-19T00:12:45;100569.41;;;12.04;100.00
13068;BME280;6600;51.362;6.686;2023-11-19T00:15:12;100572.94;;;12.04;100.00
13068;BME280;6600;51.362;6.686;2023-11-19T00:17:38;100571.66;;;12.07;100.00
13068;BME280;6600;51.362;6.686;2023-11-19T00:20:17;100565.38;;;12.13;100.00
13068;BME280;6600;51.362;6.686;2023-11-19T00:22:43;100566.41;;;12.12;100.00
13068;BME280;6600;51.362;6.686;2023-11-19T00:25:09;100558.63;;;12.22;100.00
13068;BME280;6600;51.362;6.686;2023-11-19T00:27:35;100557.69;;;12.28;100.00
13068;BME280;6600;51.362;6.686;2023-11-19T00:30:01;100550.69;;;12.27;100.00
13068;BME280;6600;51.362;6.686;2023-11-19T00:32:26;100564.72;;;12.29;100.00
13068;BME280;6600;51.362;6.686;2023-11-19T00:34:52;100560.53;;;12.33;100.00
13068;BME280;6600;51.362;6.686;2023-11-19T00:37:17;100549.31;;;12.36;100.00
13068;BME280;6600;51.362;6.686;2023-11-19T00:39:43;100545.13;;;12.40;100.00
13068;BME280;6600;51.362;6.686;2023-11-19T00:42:11;100551.66;;;12.44;100.00
13068;BME280;6600;51.362;6.686;2023-11-19T00:44:36;100544.75;;;12.37;100.00
13068;BME280;6600;51.362;6.686;2023-11-19T00:47:02;100544.66;;;12.43;100.00
13068;BME280;6600;51.362;6.686;2023-11-19T00:49:28;100536.34;;;12.45;100.00
13068;BME280;6600;51.362;6.686;2023-11-19T00:51:53;100547.69;;;12.47;100.00
13068;BME280;6600;51.362;6.686;2023-11-19T00:54:18;100523.88;;;12.50;100.00
13068;BME280;6600;51.362;6.686;2023-11-19T00:56:44;100509.38;;;12.51;100.00
13068;BME280;6600;51.362;6.686;2023-11-19T00:59:10;100516.97;;;12.54;100.00
13068;BME280;6600;51.362;6.686;2023-11-19T01:01:35;100519.19;;;12.57;100.00
13068;BME280;6600;51.362;6.686;2023-11-19T01:04:01;100508.44;;;12.57;100.00
13068;BME280;6600;51.362;6.686;2023-11-19T01:06:27;100504.00;;;12.63;100.00
13068;BME280;6600;51.362;6.686;2023-11-19T01:08:52;100511.69;;;12.59;100.00
13068;BME280;6600;51.362;6.686;2023-11-19T01:11:21;100519.28;;;12.62;100.00
13068;BME280;6600;51.362;6.686;2023-11-19T01:13:47;100514.63;;;12.58;100.00
13068;BME280;6600;51.362;6.686;2023-11-19T01:16:12;100504.25;;;12.61;100.00
13068;BME280;6600;51.362;6.686;2023-11-19T01:18:38;100498.88;;;12.61;100.00
13068;BME280;6600;51.362;6.686;2023-11-19T01:21:04;100511.47;;;12.73;100.00
13068;BME280;6600;51.362;6.686;2023-11-19T01:23:30;100514.41;;;12.71;100.00
13068;BME280;6600;51.362;6.686;2023-11-19T01:25:55;100510.41;;;12.74;100.00
13068;BME280;6600;51.362;6.686;2023-11-19T01:28:20;100525.97;;;12.72;100.00
13068;BME280;6600;51.362;6.686;2023-11-19T01:30:46;100515.44;;;12.70;100.00
13068;BME280;6600;51.362;6.686;2023-11-19T01:33:11;100515.69;;;12.69;100.00
13068;BME280;6600;51.362;6.686;2023-11-19T01:35:36;100521.66;;;12.71;100.00
13068;BME280;6600;51.362;6.686;2023-11-19T01:38:02;100526.31;;;12.75;100.00
13068;BME280;6600;51.362;6.686;2023-11-19T01:40:27;100525.50;;;12.75;100.00
13068;BME280;6600;51.362;6.686;2023-11-19T01:42:52;100523.75;;;12.80;100.00
13068;BME280;6600;51.362;6.686;2023-11-19T01:45:22;100522.91;;;12.80;100.00
13068;BME280;6600;51.362;6.686;2023-11-19T01:47:51;100506.91;;;12.73;100.00
13068;BME280;6600;51.362;6.686;2023-11-19T01:50:17;100514.16;;;12.73;100.00
13068;BME280;6600;51.362;6.686;2023-11-19T01:52:42;100512.16;;;12.80;100.00
13068;BME280;6600;51.362;6.686;2023-11-19T01:55:09;100520.00;;;12.81;100.00
13068;BME280;6600;51.362;6.686;2023-11-19T01:57:36;100521.66;;;12.82;100.00
13068;BME280;6600;51.362;6.686;2023-11-19T02:00:07;100520.84;;;12.82;100.00
13068;BME280;6600;51.362;6.686;2023-11-19T02:02:36;100507.38;;;12.82;100.00
13068;BME280;6600;51.362;6.686;2023-11-19T02:05:02;100484.00;;;12.82;100.00
13068;BME280;6600;51.362;6.686;2023-11-19T02:07:27;100489.72;;;12.86;100.00
13068;BME280;6600;51.362;6.686;2023-11-19T02:09:53;100486.44;;;12.84;100.00
13068;BME280;6600;51.362;6.686;2023-11-19T02:12:18;100471.97;;;12.85;100.00
13068;BME280;6600;51.362;6.686;2023-11-19T02:14:45;100463.19;;;12.89;100.00
13068;BME280;6600;51.362;6.686;2023-11-19T02:17:27;100459.06;;;12.87;100.00
13068;BME280;6600;51.362;6.686;2023-11-19T02:19:53;100448.31;;;12.87;100.00
13068;BME280;6600;51.362;6.686;2023-11-19T02:22:19;100441.34;;;12.86;100.00
13068;BME280;6600;51.362;6.686;2023-11-19T02:24:45;100444.59;;;12.88;100.00
13068;BME280;6600;51.362;6.686;2023-11-19T02:27:17;100447.84;;;12.90;100.00
13068;BME280;6600;51.362;6.686;2023-11-19T02:29:45;100450.44;;;12.85;100.00
13068;BME280;6600;51.362;6.686;2023-11-19T02:32:12;100459.56;;;12.84;100.00
13068;BME280;6600;51.362;6.686;2023-11-19T02:34:38;100463.97;;;12.90;100.00
13068;BME280;6600;51.362;6.686;2023-11-19T02:37:03;100465.63;;;12.91;100.00
13068;BME280;6600;51.362;6.686;2023-11-19T02:39:30;100463.84;;;12.96;100.00
13068;BME280;6600;51.362;6.686;2023-11-19T02:41:56;100455.22;;;12.94;100.00
13068;BME280;6600;51.362;6.686;2023-11-19T02:44:21;100459.78;;;12.94;100.00
13068;BME280;6600;51.362;6.686;2023-11-19T02:46:47;100450.66;;;12.95;100.00
13068;BME280;6600;51.362;6.686;2023-11-19T02:49:14;100446.31;;;12.94;100.00
13068;BME280;6600;51.362;6.686;2023-11-19T02:51:40;100446.94;;;12.96;100.00
13068;BME280;6600;51.362;6.686;2023-11-19T02:54:05;100450.41;;;12.96;100.00
13068;BME280;6600;51.362;6.686;2023-11-19T02:56:31;100446.94;;;12.96;100.00
13068;BME280;6600;51.362;6.686;2023-11-19T02:58:59;100441.06;;;12.99;100.00
13068;BME280;6600;51.362;6.686;2023-11-19T03:01:28;100445.63;;;12.98;100.00
13068;BME280;6600;51.362;6.686;2023-11-19T03:03:57;100429.81;;;13.02;100.00
13068;BME280;6600;51.362;6.686;2023-11-19T03:06:23;100441.06;;;12.99;100.00
13068;BME280;6600;51.362;6.686;2023-11-19T03:08:48;100431.47;;;13.03;100.00
13068;BME280;6600;51.362;6.686;2023-11-19T03:11:14;100431.13;;;12.99;100.00
13068;BME280;6600;51.362;6.686;2023-11-19T03:13:40;100414.75;;;13.01;100.00
13068;BME280;6600;51.362;6.686;2023-11-19T03:16:05;100420.72;;;13.03;100.00
13068;BME280;6600;51.362;6.686;2023-11-19T03:18:31;100416.94;;;13.04;100.00
13068;BME280;6600;51.362;6.686;2023-11-19T03:20:56;100428.03;;;13.07;100.00
13068;BME280;6600;51.362;6.686;2023-11-19T03:23:24;100425.16;;;13.09;100.00
13068;BME280;6600;51.362;6.686;2023-11-19T03:25:49;100450.88;;;13.05;100.00
13068;BME280;6600;51.362;6.686;2023-11-19T03:28:15;100453.44;;;13.00;100.00
13068;BME280;6600;51.362;6.686;2023-11-19T03:30:40;100435.09;;;12.97;100.00
13068;BME280;6600;51.362;6.686;2023-11-19T03:33:05;100437.63;;;13.03;100.00
13068;BME280;6600;51.362;6.686;2023-11-19T03:35:30;100443.16;;;12.97;100.00
13068;BME280;6600;51.362;6.686;2023-11-19T03:37:56;100437.44;;;12.93;100.00
13068;BME280;6600;51.362;6.686;2023-11-19T03:40:21;100432.31;;;12.92;100.00
13068;BME280;6600;51.362;6.686;2023-11-19T03:42:47;100440.84;;;12.89;100.00
13068;BME280;6600;51.362;6.686;2023-11-19T03:45:13;100449.84;;;12.83;100.00
13068;BME280;6600;51.362;6.686;2023-11-19T03:47:38;100441.09;;;12.76;100.00
13068;BME280;6600;51.362;6.686;2023-11-19T03:50:05;100440.66;;;12.79;100.00
13068;BME280;6600;51.362;6.686;2023-11-19T03:52:30;100446.03;;;12.79;100.00
13068;BME280;6600;51.362;6.686;2023-11-19T03:54:56;100441.09;;;12.76;100.00
13068;BME280;6600;51.362;6.686;2023-11-19T03:57:24;100441.09;;;12.76;100.00
13068;BME280;6600;51.362;6.686;2023-11-19T03:59:49;100458.88;;;12.77;100.00
13068;BME280;6600;51.362;6.686;2023-11-19T04:02:16;100462.28;;;12.72;100.00
13068;BME280;6600;51.362;6.686;2023-11-19T04:04:41;100456.09;;;12.72;100.00
13068;BME280;6600;51.362;6.686;2023-11-19T04:07:07;100450.72;;;12.72;100.00
13068;BME280;6600;51.362;6.686;2023-11-19T04:09:32;100449.53;;;12.68;100.00
13068;BME280;6600;51.362;6.686;2023-11-19T04:11:58;100443.69;;;12.71;100.00
13068;BME280;6600;51.362;6.686;2023-11-19T04:14:24;100445.81;;;12.69;100.00
13068;BME280;6600;51.362;6.686;2023-11-19T04:16:50;100431.28;;;12.70;100.00
13068;BME280;6600;51.362;6.686;2023-11-19T04:19:16;100444.63;;;12.64;100.00
13068;BME280;6600;51.362;6.686;2023-11-19T04:21:41;100452.91;;;12.63;100.00
13068;BME280;6600;51.362;6.686;2023-11-19T04:24:08;100447.53;;;12.63;100.00
13068;BME280;6600;51.362;6.686;2023-11-19T04:26:34;100450.94;;;12.58;100.00
13068;BME280;6600;51.362;6.686;2023-11-19T04:28:59;100455.16;;;12.54;100.00
13068;BME280;6600;51.362;6.686;2023-11-19T04:31:29;100449.44;;;12.51;100.00
13068;BME280;6600;51.362;6.686;2023-11-19T04:33:56;100454.22;;;12.49;100.00
13068;BME280;6600;51.362;6.686;2023-11-19T04:36:21;100454.56;;;12.52;100.00
13068;BME280;6600;51.362;6.686;2023-11-19T04:38:49;100449.09;;;12.47;100.00
13068;BME280;6600;51.362;6.686;2023-11-19T04:41:14;100450.34;;;12.45;100.00
13068;BME280;6600;51.362;6.686;2023-11-19T04:43:40;100448.47;;;12.45;100.00
13068;BME280;6600;51.362;6.686;2023-11-19T04:46:05;100454.00;;;12.50;100.00
13068;BME280;6600;51.362;6.686;2023-11-19T04:48:31;100450.69;;;12.48;100.00
13068;BME280;6600;51.362;6.686;2023-11-19T04:50:56;100453.16;;;12.50;100.00
13068;BME280;6600;51.362;6.686;2023-11-19T04:53:21;100456.53;;;12.45;100.00
13068;BME280;6600;51.362;6.686;2023-11-19T04:55:47;100475.50;;;12.50;100.00
13068;BME280;6600;51.362;6.686;2023-11-19T04:58:12;100471.06;;;12.44;100.00
13068;BME280;6600;51.362;6.686;2023-11-19T05:00:38;100465.22;;;12.47;100.00
13068;BME280;6600;51.362;6.686;2023-11-19T05:03:03;100470.13;;;12.50;100.00
13068;BME280;6600;51.362;6.686;2023-11-19T05:05:29;100461.00;;;12.51;100.00
13068;BME280;6600;51.362;6.686;2023-11-19T05:07:54;100451.53;;;12.49;100.00
13068;BME280;6600;51.362;6.686;2023-11-19T05:10:20;100455.97;;;12.43;100.00
13068;BME280;6600;51.362;6.686;2023-11-19T05:12:45;100459.69;;;12.42;100.00
13068;BME280;6600;51.362;6.686;2023-11-19T05:15:11;100467.28;;;12.45;100.00
13068;BME280;6600;51.362;6.686;2023-11-19T05:17:37;100467.28;;;12.45;100.00
13068;BME280;6600;51.362;6.686;2023-11-19T05:20:04;100466.81;;;12.48;100.00
13068;BME280;6600;51.362;6.686;2023-11-19T05:22:30;100471.16;;;12.49;100.00
13068;BME280;6600;51.362;6.686;2023-11-19T05:24:55;100455.28;;;12.48;100.00
13068;BME280;6600;51.362;6.686;2023-11-19T05:27:21;100468.59;;;12.54;100.00
13068;BME280;6600;51.362;6.686;2023-11-19T05:29:47;100471.75;;;12.51;100.00
13068;BME280;6600;51.362;6.686;2023-11-19T05:32:12;100475.84;;;12.54;100.00
13068;BME280;6600;51.362;6.686;2023-11-19T05:34:37;100461.69;;;12.58;100.00
13068;BME280;6600;51.362;6.686;2023-11-19T05:37:03;100472.91;;;12.55;100.00
13068;BME280;6600;51.362;6.686;2023-11-19T05:39:30;100472.44;;;12.58;100.00
13068;BME280;6600;51.362;6.686;2023-11-19T05:41:56;100466.25;;;12.58;100.00
13068;BME280;6600;51.362;6.686;2023-11-19T05:44:21;100464.16;;;12.60;100.00
13068;BME280;6600;51.362;6.686;2023-11-19T05:46:46;100475.72;;;12.60;100.00
13068;BME280;6600;51.362;6.686;2023-11-19T05:49:12;100476.53;;;12.61;100.00
13068;BME280;6600;51.362;6.686;2023-11-19T05:51:39;100464.28;;;12.65;100.00
13068;BME280;6600;51.362;6.686;2023-11-19T05:54:09;100459.13;;;12.63;100.00
13068;BME280;6600;51.362;6.686;2023-11-19T05:56:35;100478.97;;;12.62;100.00
13068;BME280;6600;51.362;6.686;2023-11-19T05:59:01;100474.28;;;12.70;100.00
13068;BME280;6600;51.362;6.686;2023-11-19T06:01:28;100483.53;;;12.62;100.00
13068;BME280;6600;51.362;6.686;2023-11-19T06:03:54;100475.13;;;12.58;100.00
13068;BME280;6600;51.362;6.686;2023-11-19T06:06:19;100494.06;;;12.52;100.00
13068;BME280;6600;51.362;6.686;2023-11-19T06:08:45;100469.88;;;12.40;100.00
13068;BME280;6600;51.362;6.686;2023-11-19T06:11:11;100464.75;;;12.50;100.00
13068;BME280;6600;51.362;6.686;2023-11-19T06:13:43;100467.91;;;12.47;100.00
13068;BME280;6600;51.362;6.686;2023-11-19T06:16:09;100480.63;;;12.40;100.00
13068;BME280;6600;51.362;6.686;2023-11-19T06:18:36;100480.63;;;12.40;100.00
13068;BME280;6600;51.362;6.686;2023-11-19T06:21:01;100473.59;;;12.39;100.00
13068;BME280;6600;51.362;6.686;2023-11-19T06:23:27;100484.34;;;12.39;100.00
13068;BME280;6600;51.362;6.686;2023-11-19T06:25:52;100473.38;;;12.29;100.00
13068;BME280;6600;51.362;6.686;2023-11-19T06:28:17;100476.16;;;12.34;100.00
13068;BME280;6600;51.362;6.686;2023-11-19T06:30:43;100478.16;;;12.27;100.00
13068;BME280;6600;51.362;6.686;2023-11-19T06:33:08;100493.22;;;12.28;100.00
13068;BME280;6600;51.362;6.686;2023-11-19T06:35:34;100475.47;;;12.27;100.00
13068;BME280;6600;51.362;6.686;2023-11-19T06:38:04;100479.22;;;12.26;100.00
13068;BME280;6600;51.362;6.686;2023-11-19T06:40:31;100472.66;;;12.22;100.00
13068;BME280;6600;51.362;6.686;2023-11-19T06:42:56;100482.59;;;12.22;100.00
13068;BME280;6600;51.362;6.686;2023-11-19T06:45:22;100488.88;;;12.15;100.00
13068;BME280;6600;51.362;6.686;2023-11-19T06:47:47;100491.31;;;12.17;100.00
13068;BME280;6600;51.362;6.686;2023-11-19T06:50:13;100488.19;;;12.20;100.00
13068;BME280;6600;51.362;6.686;2023-11-19T06:52:38;100491.22;;;12.12;100.00
13068;BME280;6600;51.362;6.686;2023-11-19T06:55:04;100498.09;;;12.08;100.00
13068;BME280;6600;51.362;6.686;2023-11-19T06:57:29;100490.19;;;12.13;100.00
13068;BME280;6600;51.362;6.686;2023-11-19T06:59:57;100493.31;;;12.10;100.00
13068;BME280;6600;51.362;6.686;2023-11-19T07:02:23;100492.88;;;12.13;100.00
13068;BME280;6600;51.362;6.686;2023-11-19T07:04:49;100484.44;;;12.09;100.00
13068;BME280;6600;51.362;6.686;2023-11-19T07:07:14;100487.59;;;12.06;100.00
13068;BME280;6600;51.362;6.686;2023-11-19T07:09:40;100489.94;;;12.03;100.00
13068;BME280;6600;51.362;6.686;2023-11-19T07:12:06;100492.47;;;11.98;100.00
13068;BME280;6600;51.362;6.686;2023-11-19T07:14:31;100495.72;;;12.00;100.00
13068;BME280;6600;51.362;6.686;2023-11-19T07:16:57;100488.97;;;11.97;100.00
13068;BME280;6600;51.362;6.686;2023-11-19T07:19:22;100497.38;;;12.01;100.00
13068;BME280;6600;51.362;6.686;2023-11-19T07:21:47;100488.75;;;11.99;100.00
13068;BME280;6600;51.362;6.686;2023-11-19T07:24:13;100492.59;;;12.03;100.00
13068;BME280;6600;51.362;6.686;2023-11-19T07:26:46;100499.47;;;11.99;100.00
13068;BME280;6600;51.362;6.686;2023-11-19T07:29:15;100500.06;;;12.01;100.00
13068;BME280;6600;51.362;6.686;2023-11-19T07:31:42;100514.66;;;12.05;100.00
13068;BME280;6600;51.362;6.686;2023-11-19T07:34:09;100507.53;;;11.99;100.00
13068;BME280;6600;51.362;6.686;2023-11-19T07:36:35;100517.22;;;12.00;100.00
13068;BME280;6600;51.362;6.686;2023-11-19T07:39:01;100518.28;;;11.99;100.00
13068;BME280;6600;51.362;6.686;2023-11-19T07:41:26;100520.81;;;11.94;100.00
13068;BME280;6600;51.362;6.686;2023-11-19T07:43:51;100528.41;;;11.97;100.00
13068;BME280;6600;51.362;6.686;2023-11-19T07:46:17;100529.38;;;12.02;100.00
13068;BME280;6600;51.362;6.686;2023-11-19T07:48:45;100540.94;;;12.03;100.00
13068;BME280;6600;51.362;6.686;2023-11-19T07:51:14;100534.97;;;12.01;100.00
13068;BME280;6600;51.362;6.686;2023-11-19T07:53:40;100550.03;;;12.02;100.00
13068;BME280;6600;51.362;6.686;2023-11-19T07:56:07;100554.38;;;12.03;100.00
13068;BME280;6600;51.362;6.686;2023-11-19T07:58:33;100567.34;;;12.06;100.00
13068;BME280;6600;51.362;6.686;2023-11-19T08:00:58;100561.06;;;12.12;100.00
13068;BME280;6600;51.362;6.686;2023-11-19T08:03:24;100574.75;;;12.22;100.00
13068;BME280;6600;51.362;6.686;2023-11-19T08:05:49;100576.84;;;12.20;100.00
13068;BME280;6600;51.362;6.686;2023-11-19T08:08:15;100591.31;;;12.19;100.00
13068;BME280;6600;51.362;6.686;2023-11-19T08:10:40;100596.22;;;12.22;100.00
13068;BME280;6600;51.362;6.686;2023-11-19T08:13:06;100596.38;;;12.27;100.00
13068;BME280;6600;51.362;6.686;2023-11-19T08:15:32;100603.97;;;12.30;100.00
13068;BME280;6600;51.362;6.686;2023-11-19T08:17:58;100601.88;;;12.32;100.00
13068;BME280;6600;51.362;6.686;2023-11-19T08:20:23;100605.84;;;12.41;100.00
13068;BME280;6600;51.362;6.686;2023-11-19T08:22:49;100611.84;;;12.43;100.00
13068;BME280;6600;51.362;6.686;2023-11-19T08:25:14;100611.22;;;12.41;100.00
13068;BME280;6600;51.362;6.686;2023-11-19T08:27:40;100599.19;;;12.32;100.00
13068;BME280;6600;51.362;6.686;2023-11-19T08:30:05;100597.41;;;12.26;100.00
13068;BME280;6600;51.362;6.686;2023-11-19T08:32:32;100590.75;;;12.29;100.00
13068;BME280;6600;51.362;6.686;2023-11-19T08:34:57;100590.84;;;12.22;100.00
13068;BME280;6600;51.362;6.686;2023-11-19T08:37:23;100594.84;;;12.31;100.00
13068;BME280;6600;51.362;6.686;2023-11-19T08:39:49;100594.38;;;12.34;100.00
13068;BME280;6600;51.362;6.686;2023-11-19T08:42:14;100599.69;;;12.41;100.00
13068;BME280;6600;51.362;6.686;2023-11-19T08:44:41;100602.72;;;12.44;100.00
13068;BME280;6600;51.362;6.686;2023-11-19T08:47:09;100606.81;;;12.47;100.00
13068;BME280;6600;51.362;6.686;2023-11-19T08:49:34;100596.53;;;12.55;100.00
13068;BME280;6600;51.362;6.686;2023-11-19T08:52:00;100593.63;;;12.57;100.00
13068;BME280;6600;51.362;6.686;2023-11-19T08:54:25;100600.53;;;12.64;100.00
13068;BME280;6600;51.362;6.686;2023-11-19T08:56:50;100596.78;;;12.65;100.00
13068;BME280;6600;51.362;6.686;2023-11-19T08:59:16;100600.78;;;12.75;100.00
13068;BME280;6600;51.362;6.686;2023-11-19T09:01:41;100607.91;;;12.81;100.00
13068;BME280;6600;51.362;6.686;2023-11-19T09:04:06;100604.28;;;12.87;100.00
13068;BME280;6600;51.362;6.686;2023-11-19T09:06:32;100602.19;;;12.89;100.00
13068;BME280;6600;51.362;6.686;2023-11-19T09:08:57;100602.91;;;12.96;100.00
13068;BME280;6600;51.362;6.686;2023-11-19T09:11:26;100605.56;;;13.07;100.00
13068;BME280;6600;51.362;6.686;2023-11-19T09:13:52;100597.88;;;13.11;100.00
13068;BME280;6600;51.362;6.686;2023-11-19T09:16:17;100597.91;;;13.23;100.00
13068;BME280;6600;51.362;6.686;2023-11-19T09:18:43;100606.53;;;13.25;100.00
13068;BME280;6600;51.362;6.686;2023-11-19T09:21:10;100597.28;;;13.32;100.00
13068;BME280;6600;51.362;6.686;2023-11-19T09:23:36;100597.50;;;13.42;100.00
13068;BME280;6600;51.362;6.686;2023-11-19T09:26:05;100600.81;;;13.44;100.00
13068;BME280;6600;51.362;6.686;2023-11-19T09:28:30;100601.38;;;13.35;100.00
13068;BME280;6600;51.362;6.686;2023-11-19T09:30:56;100593.91;;;13.37;100.00
13068;BME280;6600;51.362;6.686;2023-11-19T09:33:21;100589.78;;;13.34;100.00
13068;BME280;6600;51.362;6.686;2023-11-19T09:35:46;100579.63;;;13.25;100.00
13068;BME280;6600;51.362;6.686;2023-11-19T09:38:14;100598.94;;;13.33;100.00
13068;BME280;6600;51.362;6.686;2023-11-19T09:40:40;100590.25;;;13.43;100.00
13068;BME280;6600;51.362;6.686;2023-11-19T09:43:07;100604.06;;;13.46;100.00
13068;BME280;6600;51.362;6.686;2023-11-19T09:45:47;100599.38;;;13.53;100.00
13068;BME280;6600;51.362;6.686;2023-11-19T09:48:16;100600.66;;;13.51;100.00
13068;BME280;6600;51.362;6.686;2023-11-19T09:50:42;100596.66;;;13.53;100.00
13068;BME280;6600;51.362;6.686;2023-11-19T09:53:08;100603.09;;;13.52;100.00
13068;BME280;6600;51.362;6.686;2023-11-19T09:55:33;100593.50;;;13.56;100.00
13068;BME280;6600;51.362;6.686;2023-11-19T09:58:00;100604.28;;;13.56;100.00
13068;BME280;6600;51.362;6.686;2023-11-19T10:00:27;100585.19;;;13.58;100.00
13068;BME280;6600;51.362;6.686;2023-11-19T10:02:53;100598.41;;;13.59;100.00
13068;BME280;6600;51.362;6.686;2023-11-19T10:05:20;100597.09;;;13.62;100.00
13068;BME280;6600;51.362;6.686;2023-11-19T10:07:47;100594.19;;;13.63;100.00
13068;BME280;6600;51.362;6.686;2023-11-19T10:10:12;100577.81;;;13.53;100.00
13068;BME280;6600;51.362;6.686;2023-11-19T10:12:43;100595.72;;;13.59;100.00
13068;BME280;6600;51.362;6.686;2023-11-19T10:15:23;100599.09;;;13.66;100.00
13068;BME280;6600;51.362;6.686;2023-11-19T10:17:59;100584.09;;;13.71;100.00
13068;BME280;6600;51.362;6.686;2023-11-19T10:20:25;100582.47;;;13.70;100.00
13068;BME280;6600;51.362;6.686;2023-11-19T10:22:54;100596.25;;;13.85;100.00
13068;BME280;6600;51.362;6.686;2023-11-19T10:25:25;100586.44;;;13.79;100.00
13068;BME280;6600;51.362;6.686;2023-11-19T10:27:51;100584.88;;;13.83;100.00
13068;BME280;6600;51.362;6.686;2023-11-19T10:30:20;100580.94;;;14.02;100.00
13068;BME280;6600;51.362;6.686;2023-11-19T10:32:45;100575.94;;;13.94;98.25
13068;BME280;6600;51.362;6.686;2023-11-19T10:35:11;100580.84;;;13.97;98.73
13068;BME280;6600;51.362;6.686;2023-11-19T10:37:37;100584.88;;;14.11;98.79
13068;BME280;6600;51.362;6.686;2023-11-19T10:40:03;100582.91;;;14.06;98.14
13068;BME280;6600;51.362;6.686;2023-11-19T10:42:30;100580.75;;;14.20;97.87
13068;BME280;6600;51.362;6.686;2023-11-19T10:44:56;100591.72;;;14.02;98.21
13068;BME280;6600;51.362;6.686;2023-11-19T10:47:22;100580.44;;;14.05;98.07
13068;BME280;6600;51.362;6.686;2023-11-19T10:49:48;100571.88;;;14.08;97.46
13068;BME280;6600;51.362;6.686;2023-11-19T10:52:17;100583.44;;;14.20;97.64
13068;BME280;6600;51.362;6.686;2023-11-19T10:54:49;100576.41;;;14.19;96.78
13068;BME280;6600;51.362;6.686;2023-11-19T10:57:21;100583.44;;;14.20;96.86
13068;BME280;6600;51.362;6.686;2023-11-19T10:59:50;100589.22;;;14.12;96.06
13068;BME280;6600;51.362;6.686;2023-11-19T11:02:19;100584.19;;;14.04;96.85
13068;BME280;6600;51.362;6.686;2023-11-19T11:04:49;100582.84;;;14.18;95.75
13068;BME280;6600;51.362;6.686;2023-11-19T11:07:15;100579.63;;;14.04;96.25
13068;BME280;6600;51.362;6.686;2023-11-19T11:09:44;100581.47;;;14.15;96.20
13068;BME280;6600;51.362;6.686;2023-11-19T11:12:12;100579.00;;;14.14;96.16
13068;BME280;6600;51.362;6.686;2023-11-19T11:14:38;100573.03;;;14.12;96.37
13068;BME280;6600;51.362;6.686;2023-11-19T11:17:08;100576.22;;;14.09;96.32
13068;BME280;6600;51.362;6.686;2023-11-19T11:19:36;100578.06;;;14.20;96.83
13068;BME280;6600;51.362;6.686;2023-11-19T11:22:03;100572.25;;;14.28;96.42
13068;BME280;6600;51.362;6.686;2023-11-19T11:24:55;100560.41;;;14.29;94.63
13068;BME280;6600;51.362;6.686;2023-11-19T11:27:43;100569.59;;;14.45;95.47
13068;BME280;6600;51.362;6.686;2023-11-19T11:32:57;100555.38;;;14.49;94.40
13068;BME280;6600;51.362;6.686;2023-11-19T11:35:44;100551.03;;;14.48;94.08
13068;BME280;6600;51.362;6.686;2023-11-19T11:38:13;100552.13;;;14.47;93.78
13068;BME280;6600;51.362;6.686;2023-11-19T11:40:39;100565.13;;;14.50;94.31
13068;BME280;6600;51.362;6.686;2023-11-19T11:43:44;100557.69;;;14.57;94.46
13068;BME280;6600;51.362;6.686;2023-11-19T11:49:02;100540.84;;;14.50;93.26
13068;BME280;6600;51.362;6.686;2023-11-19T11:54:09;100513.97;;;14.39;93.28
13068;BME280;6600;51.362;6.686;2023-11-19T11:56:38;100536.72;;;14.31;92.89
13068;BME280;6600;51.362;6.686;2023-11-19T11:59:19;100541.66;;;14.34;93.50
13068;BME280;6600;51.362;6.686;2023-11-19T12:01:59;100536.91;;;14.41;93.35
13068;BME280;6600;51.362;6.686;2023-11-19T12:04:28;100536.34;;;14.39;92.96
13068;BME280;6600;51.362;6.686;2023-11-19T12:07:23;100527.78;;;14.42;93.09
13068;BME280;6600;51.362;6.686;2023-11-19T12:10:04;100535.31;;;14.40;93.86
13068;BME280;6600;51.362;6.686;2023-11-19T12:12:32;100513.06;;;14.33;93.67
13068;BME280;6600;51.362;6.686;2023-11-19T12:17:36;100509.31;;;14.34;94.73
13068;BME280;6600;51.362;6.686;2023-11-19T12:20:05;100515.03;;;14.38;94.91
13068;BME280;6600;51.362;6.686;2023-11-19T12:22:44;100508.91;;;14.42;94.91
13068;BME280;6600;51.362;6.686;2023-11-19T12:25:12;100506.84;;;14.49;93.87
13068;BME280;6600;51.362;6.686;2023-11-19T12:27:45;100497.22;;;14.53;93.30
13068;BME280;6600;51.362;6.686;2023-11-19T12:30:11;100510.19;;;14.56;94.30
13068;BME280;6600;51.362;6.686;2023-11-19T12:32:38;100498.91;;;14.59;94.59
13068;BME280;6600;51.362;6.686;2023-11-19T12:35:04;100500.41;;;14.50;94.59
13068;BME280;6600;51.362;6.686;2023-11-19T12:37:29;100518.13;;;14.46;94.47
13068;BME280;6600;51.362;6.686;2023-11-19T12:39:57;100513.06;;;14.33;94.87
13068;BME280;6600;51.362;6.686;2023-11-19T12:42:35;100517.13;;;14.19;95.69
13068;BME280;6600;51.362;6.686;2023-11-19T12:45:00;100525.25;;;13.91;93.54
13068;BME280;6600;51.362;6.686;2023-11-19T12:47:25;100515.25;;;13.75;93.63
13068;BME280;6600;51.362;6.686;2023-11-19T12:49:57;100519.97;;;13.68;97.78
13068;BME280;6600;51.362;6.686;2023-11-19T12:52:23;100527.06;;;13.45;100.00
13068;BME280;6600;51.362;6.686;2023-11-19T12:54:49;100516.34;;;13.22;100.00
13068;BME280;6600;51.362;6.686;2023-11-19T12:57:15;100529.34;;;13.02;100.00
13068;BME280;6600;51.362;6.686;2023-11-19T12:59:41;100513.09;;;12.97;100.00
13068;BME280;6600;51.362;6.686;2023-11-19T13:02:06;100531.81;;;12.92;100.00